sensor_id;sensor_type;location;lat;lon;timestamp;P1;durP1;ratioP1;P2;durP2;ratioP2
47089;SDS011;32840;52.516;13.294;2023-04-25T00:02:16;6.82;;;2.60;;
47089;SDS011;32840;52.516;13.294;2023-04-25T00:05:03;5.28;;;2.17;;
47089;SDS011;32840;52.516;13.294;2023-04-25T00:07:49;6.68;;;2.25;;
47089;SDS011;32840;52.516;13.294;2023-04-25T00:10:35;5.80;;;2.70;;
47089;SDS011;32840;52.516;13.294;2023-04-25T00:13:20;4.97;;;2.00;;
47089;SDS011;32840;52.516;13.294;2023-04-25T00:16:06;6.28;;;2.75;;
47089;SDS011;32840;52.516;13.294;2023-04-25T00:18:50;5.40;;;1.73;;
47089;SDS011;32840;52.516;13.294;2023-04-25T00:21:38;7.32;;;2.60;;
47089;SDS011;32840;52.516;13.294;2023-04-25T00:24:24;5.30;;;2.78;;
47089;SDS011;32840;52.516;13.294;2023-04-25T00:27:09;5.38;;;2.33;;
47089;SDS011;32840;52.516;13.294;2023-04-25T00:29:54;7.75;;;2.42;;
47089;SDS011;32840;52.516;13.294;2023-04-25T00:32:40;7.68;;;2.70;;
47089;SDS011;32840;52.516;13.294;2023-04-25T00:35:24;4.22;;;1.77;;
47089;SDS011;32840;52.516;13.294;2023-04-25T00:38:09;6.85;;;2.08;;
47089;SDS011;32840;52.516;13.294;2023-04-25T00:40:54;6.50;;;1.90;;
47089;SDS011;32840;52.516;13.294;2023-04-25T00:43:40;6.55;;;1.92;;
47089;SDS011;32840;52.516;13.294;2023-04-25T00:46:26;5.47;;;2.03;;
47089;SDS011;32840;52.516;13.294;2023-04-25T00:49:10;5.82;;;2.10;;
47089;SDS011;32840;52.516;13.294;2023-04-25T00:51:59;7.47;;;2.90;;
47089;SDS011;32840;52.516;13.294;2023-04-25T00:54:44;4.43;;;1.90;;
47089;SDS011;32840;52.516;13.294;2023-04-25T00:57:29;7.03;;;2.95;;
47089;SDS011;32840;52.516;13.294;2023-04-25T01:00:14;5.35;;;2.20;;
47089;SDS011;32840;52.516;13.294;2023-04-25T01:09:26;4.85;;;2.40;;
47089;SDS011;32840;52.516;13.294;2023-04-25T01:12:11;5.28;;;2.70;;
47089;SDS011;32840;52.516;13.294;2023-04-25T01:14:56;6.97;;;3.00;;
47089;SDS011;32840;52.516;13.294;2023-04-25T01:17:41;5.65;;;2.95;;
47089;SDS011;32840;52.516;13.294;2023-04-25T01:20:26;5.75;;;2.45;;
47089;SDS011;32840;52.516;13.294;2023-04-25T01:23:13;8.98;;;2.42;;
47089;SDS011;32840;52.516;13.294;2023-04-25T01:25:58;6.75;;;2.80;;
47089;SDS011;32840;52.516;13.294;2023-04-25T01:28:43;8.70;;;2.97;;
47089;SDS011;32840;52.516;13.294;2023-04-25T01:31:30;8.32;;;2.65;;
47089;SDS011;32840;52.516;13.294;2023-04-25T01:34:16;9.07;;;3.00;;
47089;SDS011;32840;52.516;13.294;2023-04-25T01:37:01;5.90;;;2.20;;
47089;SDS011;32840;52.516;13.294;2023-04-25T01:39:46;6.53;;;2.20;;
47089;SDS011;32840;52.516;13.294;2023-04-25T01:42:34;5.85;;;2.83;;
47089;SDS011;32840;52.516;13.294;2023-04-25T01:45:22;9.23;;;3.30;;
47089;SDS011;32840;52.516;13.294;2023-04-25T01:48:07;8.07;;;3.00;;
47089;SDS011;32840;52.516;13.294;2023-04-25T01:50:56;6.80;;;2.70;;
47089;SDS011;32840;52.516;13.294;2023-04-25T01:53:41;5.97;;;2.88;;
47089;SDS011;32840;52.516;13.294;2023-04-25T01:56:31;6.78;;;2.90;;
47089;SDS011;32840;52.516;13.294;2023-04-25T01:59:16;5.53;;;3.03;;
47089;SDS011;32840;52.516;13.294;2023-04-25T02:02:03;12.40;;;3.22;;
47089;SDS011;32840;52.516;13.294;2023-04-25T02:04:48;8.93;;;3.22;;
47089;SDS011;32840;52.516;13.294;2023-04-25T02:07:33;6.35;;;2.75;;
47089;SDS011;32840;52.516;13.294;2023-04-25T02:10:18;5.22;;;3.20;;
47089;SDS011;32840;52.516;13.294;2023-04-25T02:13:03;9.77;;;3.83;;
47089;SDS011;32840;52.516;13.294;2023-04-25T02:15:49;7.57;;;2.72;;
47089;SDS011;32840;52.516;13.294;2023-04-25T02:18:35;8.65;;;3.30;;
47089;SDS011;32840;52.516;13.294;2023-04-25T02:21:21;7.47;;;2.80;;
47089;SDS011;32840;52.516;13.294;2023-04-25T02:24:06;6.43;;;2.90;;
47089;SDS011;32840;52.516;13.294;2023-04-25T02:26:51;8.10;;;3.33;;
47089;SDS011;32840;52.516;13.294;2023-04-25T02:29:36;5.55;;;3.13;;
47089;SDS011;32840;52.516;13.294;2023-04-25T02:32:21;7.70;;;3.33;;
47089;SDS011;32840;52.516;13.294;2023-04-25T02:35:06;10.52;;;2.95;;
47089;SDS011;32840;52.516;13.294;2023-04-25T02:37:52;11.05;;;3.55;;
47089;SDS011;32840;52.516;13.294;2023-04-25T02:40:40;8.32;;;3.08;;
47089;SDS011;32840;52.516;13.294;2023-04-25T02:43:25;10.80;;;3.80;;
47089;SDS011;32840;52.516;13.294;2023-04-25T02:46:10;8.65;;;3.35;;
47089;SDS011;32840;52.516;13.294;2023-04-25T02:48:55;8.57;;;3.55;;
47089;SDS011;32840;52.516;13.294;2023-04-25T02:51:40;9.10;;;3.72;;
47089;SDS011;32840;52.516;13.294;2023-04-25T02:54:24;9.80;;;3.67;;
47089;SDS011;32840;52.516;13.294;2023-04-25T02:57:09;8.48;;;3.45;;
47089;SDS011;32840;52.516;13.294;2023-04-25T02:59:54;8.50;;;3.47;;
47089;SDS011;32840;52.516;13.294;2023-04-25T03:02:39;6.45;;;3.78;;
47089;SDS011;32840;52.516;13.294;2023-04-25T03:05:24;7.30;;;3.25;;
47089;SDS011;32840;52.516;13.294;2023-04-25T03:08:09;6.30;;;3.20;;
47089;SDS011;32840;52.516;13.294;2023-04-25T03:10:54;7.15;;;3.85;;
47089;SDS011;32840;52.516;13.294;2023-04-25T03:13:42;7.30;;;3.60;;
47089;SDS011;32840;52.516;13.294;2023-04-25T03:16:31;8.27;;;3.63;;
47089;SDS011;32840;52.516;13.294;2023-04-25T03:19:19;7.55;;;3.42;;
47089;SDS011;32840;52.516;13.294;2023-04-25T03:22:04;10.85;;;3.70;;
47089;SDS011;32840;52.516;13.294;2023-04-25T03:24:50;9.55;;;4.20;;
47089;SDS011;32840;52.516;13.294;2023-04-25T03:27:37;7.95;;;3.60;;
47089;SDS011;32840;52.516;13.294;2023-04-25T03:30:22;8.82;;;4.53;;
47089;SDS011;32840;52.516;13.294;2023-04-25T03:33:07;7.13;;;3.97;;
47089;SDS011;32840;52.516;13.294;2023-04-25T03:35:52;6.60;;;3.72;;
47089;SDS011;32840;52.516;13.294;2023-04-25T03:38:37;9.07;;;4.03;;
47089;SDS011;32840;52.516;13.294;2023-04-25T03:41:22;6.85;;;3.63;;
47089;SDS011;32840;52.516;13.294;2023-04-25T03:44:07;8.93;;;4.50;;
47089;SDS011;32840;52.516;13.294;2023-04-25T03:46:52;8.30;;;4.38;;
47089;SDS011;32840;52.516;13.294;2023-04-25T03:49:37;10.20;;;3.75;;
47089;SDS011;32840;52.516;13.294;2023-04-25T03:52:24;8.10;;;4.35;;
47089;SDS011;32840;52.516;13.294;2023-04-25T03:55:09;7.30;;;3.67;;
47089;SDS011;32840;52.516;13.294;2023-04-25T03:57:54;11.05;;;4.05;;
47089;SDS011;32840;52.516;13.294;2023-04-25T04:00:39;6.97;;;3.53;;
47089;SDS011;32840;52.516;13.294;2023-04-25T04:03:24;12.38;;;4.28;;
47089;SDS011;32840;52.516;13.294;2023-04-25T04:06:08;9.30;;;4.03;;
47089;SDS011;32840;52.516;13.294;2023-04-25T04:09:00;11.85;;;4.90;;
47089;SDS011;32840;52.516;13.294;2023-04-25T04:11:46;10.93;;;3.95;;
47089;SDS011;32840;52.516;13.294;2023-04-25T04:14:31;12.63;;;5.15;;
47089;SDS011;32840;52.516;13.294;2023-04-25T04:17:16;10.65;;;4.07;;
47089;SDS011;32840;52.516;13.294;2023-04-25T04:20:01;11.23;;;4.00;;
47089;SDS011;32840;52.516;13.294;2023-04-25T04:22:48;10.63;;;3.75;;
47089;SDS011;32840;52.516;13.294;2023-04-25T04:25:33;12.38;;;5.03;;
47089;SDS011;32840;52.516;13.294;2023-04-25T04:28:19;6.68;;;2.95;;
47089;SDS011;32840;52.516;13.294;2023-04-25T04:31:05;8.45;;;4.28;;
47089;SDS011;32840;52.516;13.294;2023-04-25T04:33:53;9.73;;;4.20;;
47089;SDS011;32840;52.516;13.294;2023-04-25T04:36:37;6.45;;;3.95;;
47089;SDS011;32840;52.516;13.294;2023-04-25T04:39:24;11.35;;;4.32;;
47089;SDS011;32840;52.516;13.294;2023-04-25T04:42:10;9.07;;;4.20;;
47089;SDS011;32840;52.516;13.294;2023-04-25T04:44:55;14.48;;;4.47;;
47089;SDS011;32840;52.516;13.294;2023-04-25T04:47:40;11.48;;;4.53;;
47089;SDS011;32840;52.516;13.294;2023-04-25T04:50:25;11.10;;;4.75;;
47089;SDS011;32840;52.516;13.294;2023-04-25T04:53:11;15.27;;;4.57;;
47089;SDS011;32840;52.516;13.294;2023-04-25T04:55:56;10.35;;;4.07;;
47089;SDS011;32840;52.516;13.294;2023-04-25T04:58:41;9.55;;;4.45;;
47089;SDS011;32840;52.516;13.294;2023-04-25T05:01:27;12.63;;;4.13;;
47089;SDS011;32840;52.516;13.294;2023-04-25T05:04:13;9.23;;;4.10;;
47089;SDS011;32840;52.516;13.294;2023-04-25T05:06:58;13.68;;;4.95;;
47089;SDS011;32840;52.516;13.294;2023-04-25T05:09:43;10.40;;;4.00;;
47089;SDS011;32840;52.516;13.294;2023-04-25T05:12:28;10.85;;;4.18;;
47089;SDS011;32840;52.516;13.294;2023-04-25T05:15:14;8.93;;;4.03;;
47089;SDS011;32840;52.516;13.294;2023-04-25T05:17:59;7.72;;;4.53;;
47089;SDS011;32840;52.516;13.294;2023-04-25T05:20:44;9.20;;;4.82;;
47089;SDS011;32840;52.516;13.294;2023-04-25T05:23:29;8.00;;;3.75;;
47089;SDS011;32840;52.516;13.294;2023-04-25T05:26:14;8.13;;;4.30;;
47089;SDS011;32840;52.516;13.294;2023-04-25T05:29:01;6.78;;;4.47;;
47089;SDS011;32840;52.516;13.294;2023-04-25T05:31:46;14.32;;;4.70;;
47089;SDS011;32840;52.516;13.294;2023-04-25T05:34:32;13.75;;;3.70;;
47089;SDS011;32840;52.516;13.294;2023-04-25T05:37:17;14.10;;;4.80;;
47089;SDS011;32840;52.516;13.294;2023-04-25T05:40:02;10.55;;;4.38;;
47089;SDS011;32840;52.516;13.294;2023-04-25T05:42:51;13.98;;;4.75;;
47089;SDS011;32840;52.516;13.294;2023-04-25T05:45:35;14.57;;;4.95;;
47089;SDS011;32840;52.516;13.294;2023-04-25T05:48:20;12.68;;;5.22;;
47089;SDS011;32840;52.516;13.294;2023-04-25T05:51:05;10.93;;;5.43;;
47089;SDS011;32840;52.516;13.294;2023-04-25T05:53:50;9.85;;;5.07;;
47089;SDS011;32840;52.516;13.294;2023-04-25T05:56:35;11.88;;;4.78;;
47089;SDS011;32840;52.516;13.294;2023-04-25T05:59:21;16.63;;;5.00;;
47089;SDS011;32840;52.516;13.294;2023-04-25T06:02:06;9.02;;;5.40;;
47089;SDS011;32840;52.516;13.294;2023-04-25T06:04:51;13.88;;;5.82;;
47089;SDS011;32840;52.516;13.294;2023-04-25T06:07:35;15.32;;;5.20;;
47089;SDS011;32840;52.516;13.294;2023-04-25T06:10:22;12.20;;;5.65;;
47089;SDS011;32840;52.516;13.294;2023-04-25T06:13:07;10.40;;;5.38;;
47089;SDS011;32840;52.516;13.294;2023-04-25T06:15:53;12.15;;;5.63;;
47089;SDS011;32840;52.516;13.294;2023-04-25T06:18:38;13.15;;;5.30;;
47089;SDS011;32840;52.516;13.294;2023-04-25T06:21:24;14.93;;;5.53;;
47089;SDS011;32840;52.516;13.294;2023-04-25T06:24:10;9.38;;;4.97;;
47089;SDS011;32840;52.516;13.294;2023-04-25T06:26:55;10.48;;;5.72;;
47089;SDS011;32840;52.516;13.294;2023-04-25T06:29:40;10.35;;;5.18;;
47089;SDS011;32840;52.516;13.294;2023-04-25T06:32:25;11.07;;;4.78;;
47089;SDS011;32840;52.516;13.294;2023-04-25T06:35:12;16.65;;;5.40;;
47089;SDS011;32840;52.516;13.294;2023-04-25T06:37:57;13.48;;;5.80;;
47089;SDS011;32840;52.516;13.294;2023-04-25T06:40:43;7.55;;;4.40;;
47089;SDS011;32840;52.516;13.294;2023-04-25T06:43:30;8.38;;;4.65;;
47089;SDS011;32840;52.516;13.294;2023-04-25T06:46:17;16.55;;;5.18;;
47089;SDS011;32840;52.516;13.294;2023-04-25T06:49:11;7.13;;;4.65;;
47089;SDS011;32840;52.516;13.294;2023-04-25T06:51:55;11.10;;;5.03;;
47089;SDS011;32840;52.516;13.294;2023-04-25T06:54:40;8.38;;;4.47;;
47089;SDS011;32840;52.516;13.294;2023-04-25T06:57:25;8.60;;;4.57;;
47089;SDS011;32840;52.516;13.294;2023-04-25T07:00:13;13.00;;;4.90;;
47089;SDS011;32840;52.516;13.294;2023-04-25T07:02:59;11.10;;;4.82;;
47089;SDS011;32840;52.516;13.294;2023-04-25T07:05:44;10.18;;;5.05;;
47089;SDS011;32840;52.516;13.294;2023-04-25T07:08:31;9.15;;;4.57;;
47089;SDS011;32840;52.516;13.294;2023-04-25T07:11:16;5.82;;;4.10;;
47089;SDS011;32840;52.516;13.294;2023-04-25T07:14:01;6.95;;;3.75;;
47089;SDS011;32840;52.516;13.294;2023-04-25T07:16:46;8.60;;;3.88;;
47089;SDS011;32840;52.516;13.294;2023-04-25T07:19:31;11.70;;;4.93;;
47089;SDS011;32840;52.516;13.294;2023-04-25T07:22:17;12.32;;;4.68;;
47089;SDS011;32840;52.516;13.294;2023-04-25T07:25:04;12.77;;;4.80;;
47089;SDS011;32840;52.516;13.294;2023-04-25T07:27:49;13.77;;;4.82;;
47089;SDS011;32840;52.516;13.294;2023-04-25T07:30:34;12.07;;;4.68;;
47089;SDS011;32840;52.516;13.294;2023-04-25T07:33:19;11.63;;;4.60;;
47089;SDS011;32840;52.516;13.294;2023-04-25T07:36:06;13.30;;;4.30;;
47089;SDS011;32840;52.516;13.294;2023-04-25T07:38:51;14.45;;;5.50;;
47089;SDS011;32840;52.516;13.294;2023-04-25T07:41:36;15.70;;;5.25;;
47089;SDS011;32840;52.516;13.294;2023-04-25T07:44:21;21.20;;;5.30;;
47089;SDS011;32840;52.516;13.294;2023-04-25T07:47:06;18.60;;;5.57;;
47089;SDS011;32840;52.516;13.294;2023-04-25T07:49:53;19.80;;;5.35;;
47089;SDS011;32840;52.516;13.294;2023-04-25T07:52:38;21.42;;;4.90;;
47089;SDS011;32840;52.516;13.294;2023-04-25T07:55:23;13.88;;;3.63;;
47089;SDS011;32840;52.516;13.294;2023-04-25T07:58:08;16.80;;;4.35;;
47089;SDS011;32840;52.516;13.294;2023-04-25T08:00:54;19.75;;;5.05;;
47089;SDS011;32840;52.516;13.294;2023-04-25T08:03:40;15.07;;;4.45;;
47089;SDS011;32840;52.516;13.294;2023-04-25T08:06:25;19.42;;;5.20;;
47089;SDS011;32840;52.516;13.294;2023-04-25T08:09:10;11.02;;;3.58;;
47089;SDS011;32840;52.516;13.294;2023-04-25T08:11:55;16.05;;;4.65;;
47089;SDS011;32840;52.516;13.294;2023-04-25T08:14:42;20.65;;;5.05;;
47089;SDS011;32840;52.516;13.294;2023-04-25T08:17:27;19.77;;;4.57;;
47089;SDS011;32840;52.516;13.294;2023-04-25T08:20:12;16.73;;;4.30;;
47089;SDS011;32840;52.516;13.294;2023-04-25T08:22:57;14.93;;;3.78;;
47089;SDS011;32840;52.516;13.294;2023-04-25T08:25:41;23.45;;;5.65;;
47089;SDS011;32840;52.516;13.294;2023-04-25T08:28:26;22.77;;;4.97;;
47089;SDS011;32840;52.516;13.294;2023-04-25T08:31:11;16.20;;;4.35;;
47089;SDS011;32840;52.516;13.294;2023-04-25T08:33:56;17.75;;;4.47;;
47089;SDS011;32840;52.516;13.294;2023-04-25T08:36:41;21.85;;;4.65;;
47089;SDS011;32840;52.516;13.294;2023-04-25T08:39:26;20.60;;;7.28;;
47089;SDS011;32840;52.516;13.294;2023-04-25T08:42:10;16.77;;;3.92;;
47089;SDS011;32840;52.516;13.294;2023-04-25T08:44:56;18.33;;;4.47;;
47089;SDS011;32840;52.516;13.294;2023-04-25T08:47:43;18.60;;;4.78;;
47089;SDS011;32840;52.516;13.294;2023-04-25T08:50:29;13.02;;;3.75;;
47089;SDS011;32840;52.516;13.294;2023-04-25T08:53:14;16.30;;;4.22;;
47089;SDS011;32840;52.516;13.294;2023-04-25T08:58:54;18.02;;;3.80;;
47089;SDS011;32840;52.516;13.294;2023-04-25T09:01:39;18.00;;;4.40;;
47089;SDS011;32840;52.516;13.294;2023-04-25T09:04:26;17.98;;;5.50;;
47089;SDS011;32840;52.516;13.294;2023-04-25T09:07:19;32.08;;;16.52;;
47089;SDS011;32840;52.516;13.294;2023-04-25T09:10:06;16.23;;;4.35;;
47089;SDS011;32840;52.516;13.294;2023-04-25T09:13:07;13.18;;;4.88;;
47089;SDS011;32840;52.516;13.294;2023-04-25T09:15:58;14.80;;;3.95;;
47089;SDS011;32840;52.516;13.294;2023-04-25T09:18:42;14.73;;;4.38;;
47089;SDS011;32840;52.516;13.294;2023-04-25T09:21:28;18.98;;;3.63;;
47089;SDS011;32840;52.516;13.294;2023-04-25T09:24:39;13.43;;;3.92;;
47089;SDS011;32840;52.516;13.294;2023-04-25T09:27:29;11.75;;;3.33;;
47089;SDS011;32840;52.516;13.294;2023-04-25T09:30:15;20.67;;;9.00;;
47089;SDS011;32840;52.516;13.294;2023-04-25T09:33:04;12.88;;;3.85;;
47089;SDS011;32840;52.516;13.294;2023-04-25T09:35:51;14.13;;;3.17;;
47089;SDS011;32840;52.516;13.294;2023-04-25T09:38:45;14.57;;;3.53;;
47089;SDS011;32840;52.516;13.294;2023-04-25T09:41:31;12.00;;;3.58;;
47089;SDS011;32840;52.516;13.294;2023-04-25T09:44:24;11.35;;;3.10;;
47089;SDS011;32840;52.516;13.294;2023-04-25T09:47:09;14.40;;;4.20;;
47089;SDS011;32840;52.516;13.294;2023-04-25T09:49:56;16.95;;;3.90;;
47089;SDS011;32840;52.516;13.294;2023-04-25T09:52:42;13.48;;;3.25;;
47089;SDS011;32840;52.516;13.294;2023-04-25T09:59:09;13.85;;;3.10;;
47089;SDS011;32840;52.516;13.294;2023-04-25T10:01:55;15.68;;;3.42;;
47089;SDS011;32840;52.516;13.294;2023-04-25T10:04:41;9.63;;;3.33;;
47089;SDS011;32840;52.516;13.294;2023-04-25T10:07:30;10.98;;;3.00;;
47089;SDS011;32840;52.516;13.294;2023-04-25T10:10:16;10.05;;;3.08;;
47089;SDS011;32840;52.516;13.294;2023-04-25T10:13:04;11.10;;;3.00;;
47089;SDS011;32840;52.516;13.294;2023-04-25T10:15:49;8.40;;;2.78;;
47089;SDS011;32840;52.516;13.294;2023-04-25T10:18:36;12.73;;;3.88;;
47089;SDS011;32840;52.516;13.294;2023-04-25T10:21:22;12.13;;;3.70;;
47089;SDS011;32840;52.516;13.294;2023-04-25T10:24:08;9.32;;;3.25;;
47089;SDS011;32840;52.516;13.294;2023-04-25T10:26:53;14.05;;;3.28;;
47089;SDS011;32840;52.516;13.294;2023-04-25T10:29:39;13.13;;;4.15;;
47089;SDS011;32840;52.516;13.294;2023-04-25T10:32:32;15.68;;;3.30;;
47089;SDS011;32840;52.516;13.294;2023-04-25T10:35:18;9.23;;;2.95;;
47089;SDS011;32840;52.516;13.294;2023-04-25T10:41:07;11.82;;;3.70;;
47089;SDS011;32840;52.516;13.294;2023-04-25T10:43:59;11.07;;;2.92;;
47089;SDS011;32840;52.516;13.294;2023-04-25T10:46:45;11.93;;;2.97;;
47089;SDS011;32840;52.516;13.294;2023-04-25T10:49:31;12.38;;;2.95;;
47089;SDS011;32840;52.516;13.294;2023-04-25T10:52:27;12.50;;;2.95;;
47089;SDS011;32840;52.516;13.294;2023-04-25T10:55:14;11.60;;;3.60;;
47089;SDS011;32840;52.516;13.294;2023-04-25T10:57:59;16.67;;;3.20;;
47089;SDS011;32840;52.516;13.294;2023-04-25T11:00:46;10.32;;;2.92;;
47089;SDS011;32840;52.516;13.294;2023-04-25T11:03:31;13.75;;;3.90;;
47089;SDS011;32840;52.516;13.294;2023-04-25T11:06:23;19.45;;;3.08;;
47089;SDS011;32840;52.516;13.294;2023-04-25T11:09:17;8.63;;;2.20;;
47089;SDS011;32840;52.516;13.294;2023-04-25T11:12:03;12.90;;;3.33;;
47089;SDS011;32840;52.516;13.294;2023-04-25T11:14:49;14.25;;;2.72;;
47089;SDS011;32840;52.516;13.294;2023-04-25T11:17:34;9.73;;;2.60;;
47089;SDS011;32840;52.516;13.294;2023-04-25T11:20:19;13.60;;;3.40;;
47089;SDS011;32840;52.516;13.294;2023-04-25T11:23:05;13.88;;;5.55;;
47089;SDS011;32840;52.516;13.294;2023-04-25T11:25:49;7.78;;;2.33;;
47089;SDS011;32840;52.516;13.294;2023-04-25T11:28:36;11.85;;;2.40;;
47089;SDS011;32840;52.516;13.294;2023-04-25T11:31:24;8.55;;;2.50;;
47089;SDS011;32840;52.516;13.294;2023-04-25T11:34:09;6.35;;;2.20;;
47089;SDS011;32840;52.516;13.294;2023-04-25T11:36:54;12.90;;;3.05;;
47089;SDS011;32840;52.516;13.294;2023-04-25T11:39:44;11.52;;;2.40;;
47089;SDS011;32840;52.516;13.294;2023-04-25T11:42:33;10.25;;;2.50;;
47089;SDS011;32840;52.516;13.294;2023-04-25T11:45:25;8.75;;;3.13;;
47089;SDS011;32840;52.516;13.294;2023-04-25T11:48:10;10.93;;;2.97;;
47089;SDS011;32840;52.516;13.294;2023-04-25T11:50:55;10.43;;;2.42;;
47089;SDS011;32840;52.516;13.294;2023-04-25T11:53:50;7.60;;;2.90;;
47089;SDS011;32840;52.516;13.294;2023-04-25T11:56:37;12.40;;;3.10;;
47089;SDS011;32840;52.516;13.294;2023-04-25T11:59:25;12.35;;;2.78;;
47089;SDS011;32840;52.516;13.294;2023-04-25T12:02:23;12.05;;;2.60;;
47089;SDS011;32840;52.516;13.294;2023-04-25T12:08:11;9.60;;;2.67;;
47089;SDS011;32840;52.516;13.294;2023-04-25T12:10:59;7.45;;;2.40;;
47089;SDS011;32840;52.516;13.294;2023-04-25T12:13:45;10.75;;;2.75;;
47089;SDS011;32840;52.516;13.294;2023-04-25T12:16:44;9.50;;;2.92;;
47089;SDS011;32840;52.516;13.294;2023-04-25T12:19:33;8.02;;;2.70;;
47089;SDS011;32840;52.516;13.294;2023-04-25T12:22:20;5.85;;;2.25;;
47089;SDS011;32840;52.516;13.294;2023-04-25T12:25:06;9.30;;;2.45;;
47089;SDS011;32840;52.516;13.294;2023-04-25T12:27:52;8.20;;;2.75;;
47089;SDS011;32840;52.516;13.294;2023-04-25T12:30:56;14.13;;;2.75;;
47089;SDS011;32840;52.516;13.294;2023-04-25T12:33:50;15.48;;;5.05;;
47089;SDS011;32840;52.516;13.294;2023-04-25T12:36:37;8.88;;;3.80;;
47089;SDS011;32840;52.516;13.294;2023-04-25T12:39:23;10.73;;;2.80;;
47089;SDS011;32840;52.516;13.294;2023-04-25T12:42:10;12.70;;;3.35;;
47089;SDS011;32840;52.516;13.294;2023-04-25T12:44:59;12.43;;;2.97;;
47089;SDS011;32840;52.516;13.294;2023-04-25T12:47:45;13.55;;;4.35;;
47089;SDS011;32840;52.516;13.294;2023-04-25T12:50:31;11.82;;;2.75;;
47089;SDS011;32840;52.516;13.294;2023-04-25T12:53:19;9.30;;;2.58;;
47089;SDS011;32840;52.516;13.294;2023-04-25T12:56:05;12.18;;;2.50;;
47089;SDS011;32840;52.516;13.294;2023-04-25T12:58:54;13.88;;;3.38;;
47089;SDS011;32840;52.516;13.294;2023-04-25T13:01:40;9.95;;;3.30;;
47089;SDS011;32840;52.516;13.294;2023-04-25T13:04:24;10.75;;;5.10;;
47089;SDS011;32840;52.516;13.294;2023-04-25T13:07:10;6.93;;;2.17;;
47089;SDS011;32840;52.516;13.294;2023-04-25T13:09:55;7.60;;;2.63;;
47089;SDS011;32840;52.516;13.294;2023-04-25T13:12:41;11.73;;;3.30;;
47089;SDS011;32840;52.516;13.294;2023-04-25T13:15:26;7.65;;;2.80;;
47089;SDS011;32840;52.516;13.294;2023-04-25T13:18:11;6.10;;;2.13;;
47089;SDS011;32840;52.516;13.294;2023-04-25T13:20:57;17.25;;;6.75;;
47089;SDS011;32840;52.516;13.294;2023-04-25T13:23:43;7.68;;;2.70;;
47089;SDS011;32840;52.516;13.294;2023-04-25T13:26:30;8.20;;;2.00;;
47089;SDS011;32840;52.516;13.294;2023-04-25T13:29:17;7.57;;;2.50;;
47089;SDS011;32840;52.516;13.294;2023-04-25T13:32:04;9.65;;;3.83;;
47089;SDS011;32840;52.516;13.294;2023-04-25T13:34:50;8.82;;;1.88;;
47089;SDS011;32840;52.516;13.294;2023-04-25T13:37:35;10.05;;;3.05;;
47089;SDS011;32840;52.516;13.294;2023-04-25T13:40:23;10.25;;;2.10;;
47089;SDS011;32840;52.516;13.294;2023-04-25T13:43:10;8.23;;;2.40;;
47089;SDS011;32840;52.516;13.294;2023-04-25T13:45:57;12.90;;;4.18;;
47089;SDS011;32840;52.516;13.294;2023-04-25T13:48:42;7.88;;;2.63;;
47089;SDS011;32840;52.516;13.294;2023-04-25T13:51:30;11.77;;;4.30;;
47089;SDS011;32840;52.516;13.294;2023-04-25T13:54:15;8.00;;;2.47;;
47089;SDS011;32840;52.516;13.294;2023-04-25T13:57:02;7.35;;;1.92;;
47089;SDS011;32840;52.516;13.294;2023-04-25T13:59:48;7.40;;;1.88;;
47089;SDS011;32840;52.516;13.294;2023-04-25T14:02:38;6.93;;;2.60;;
47089;SDS011;32840;52.516;13.294;2023-04-25T14:05:23;12.88;;;2.40;;
47089;SDS011;32840;52.516;13.294;2023-04-25T14:08:08;10.25;;;2.63;;
47089;SDS011;32840;52.516;13.294;2023-04-25T14:10:54;8.20;;;1.83;;
47089;SDS011;32840;52.516;13.294;2023-04-25T14:13:39;5.97;;;1.77;;
47089;SDS011;32840;52.516;13.294;2023-04-25T14:16:24;7.57;;;2.40;;
47089;SDS011;32840;52.516;13.294;2023-04-25T14:19:10;9.90;;;2.17;;
47089;SDS011;32840;52.516;13.294;2023-04-25T14:21:55;5.20;;;1.73;;
47089;SDS011;32840;52.516;13.294;2023-04-25T14:24:40;8.60;;;2.20;;
47089;SDS011;32840;52.516;13.294;2023-04-25T14:27:25;6.00;;;1.77;;
47089;SDS011;32840;52.516;13.294;2023-04-25T14:30:12;8.32;;;1.95;;
47089;SDS011;32840;52.516;13.294;2023-04-25T14:32:57;8.55;;;2.70;;
47089;SDS011;32840;52.516;13.294;2023-04-25T14:35:42;6.43;;;1.80;;
47089;SDS011;32840;52.516;13.294;2023-04-25T14:38:30;5.57;;;1.80;;
47089;SDS011;32840;52.516;13.294;2023-04-25T14:41:15;6.80;;;1.55;;
47089;SDS011;32840;52.516;13.294;2023-04-25T14:44:00;7.47;;;1.85;;
47089;SDS011;32840;52.516;13.294;2023-04-25T14:46:46;9.48;;;3.83;;
47089;SDS011;32840;52.516;13.294;2023-04-25T14:49:38;11.05;;;2.60;;
47089;SDS011;32840;52.516;13.294;2023-04-25T14:52:24;7.65;;;2.22;;
47089;SDS011;32840;52.516;13.294;2023-04-25T14:55:10;7.35;;;2.45;;
47089;SDS011;32840;52.516;13.294;2023-04-25T14:58:00;12.13;;;2.33;;
47089;SDS011;32840;52.516;13.294;2023-04-25T15:03:31;7.82;;;1.90;;
47089;SDS011;32840;52.516;13.294;2023-04-25T15:06:17;8.65;;;2.28;;
47089;SDS011;32840;52.516;13.294;2023-04-25T15:09:02;8.75;;;2.72;;
47089;SDS011;32840;52.516;13.294;2023-04-25T15:11:47;7.55;;;2.13;;
47089;SDS011;32840;52.516;13.294;2023-04-25T15:14:33;7.45;;;1.77;;
47089;SDS011;32840;52.516;13.294;2023-04-25T15:17:18;7.97;;;1.85;;
47089;SDS011;32840;52.516;13.294;2023-04-25T15:20:05;14.73;;;5.88;;
47089;SDS011;32840;52.516;13.294;2023-04-25T15:22:51;7.50;;;1.60;;
47089;SDS011;32840;52.516;13.294;2023-04-25T15:25:36;7.72;;;1.50;;
47089;SDS011;32840;52.516;13.294;2023-04-25T15:28:22;6.07;;;1.63;;
47089;SDS011;32840;52.516;13.294;2023-04-25T15:31:07;4.78;;;2.03;;
47089;SDS011;32840;52.516;13.294;2023-04-25T15:33:51;10.90;;;3.05;;
47089;SDS011;32840;52.516;13.294;2023-04-25T15:36:36;7.97;;;1.70;;
47089;SDS011;32840;52.516;13.294;2023-04-25T15:39:21;7.85;;;2.05;;
47089;SDS011;32840;52.516;13.294;2023-04-25T15:42:06;7.22;;;1.52;;
47089;SDS011;32840;52.516;13.294;2023-04-25T15:44:52;8.15;;;2.35;;
47089;SDS011;32840;52.516;13.294;2023-04-25T15:47:38;9.52;;;2.22;;
47089;SDS011;32840;52.516;13.294;2023-04-25T15:50:23;6.63;;;1.83;;
47089;SDS011;32840;52.516;13.294;2023-04-25T15:53:08;7.00;;;1.80;;
47089;SDS011;32840;52.516;13.294;2023-04-25T15:55:54;5.03;;;1.73;;
47089;SDS011;32840;52.516;13.294;2023-04-25T15:58:39;10.20;;;2.00;;
47089;SDS011;32840;52.516;13.294;2023-04-25T16:01:24;5.88;;;1.73;;
47089;SDS011;32840;52.516;13.294;2023-04-25T16:04:13;6.05;;;1.70;;
47089;SDS011;32840;52.516;13.294;2023-04-25T16:06:59;10.15;;;2.20;;
47089;SDS011;32840;52.516;13.294;2023-04-25T16:09:46;5.65;;;2.10;;
47089;SDS011;32840;52.516;13.294;2023-04-25T16:12:31;6.15;;;1.45;;
47089;SDS011;32840;52.516;13.294;2023-04-25T16:15:16;13.55;;;2.35;;
47089;SDS011;32840;52.516;13.294;2023-04-25T16:18:01;7.60;;;1.80;;
47089;SDS011;32840;52.516;13.294;2023-04-25T16:20:47;7.68;;;1.92;;
47089;SDS011;32840;52.516;13.294;2023-04-25T16:23:33;3.72;;;1.08;;
47089;SDS011;32840;52.516;13.294;2023-04-25T16:26:18;7.18;;;1.75;;
47089;SDS011;32840;52.516;13.294;2023-04-25T16:29:03;6.47;;;2.22;;
47089;SDS011;32840;52.516;13.294;2023-04-25T16:31:48;6.22;;;1.67;;
47089;SDS011;32840;52.516;13.294;2023-04-25T16:34:33;4.70;;;1.35;;
47089;SDS011;32840;52.516;13.294;2023-04-25T16:37:17;7.38;;;1.38;;
47089;SDS011;32840;52.516;13.294;2023-04-25T16:40:02;4.38;;;1.35;;
47089;SDS011;32840;52.516;13.294;2023-04-25T16:42:48;8.35;;;2.10;;